Time;durP1;ratioP1;P1;durP2;ratioP2;P2;SDS_P1;SDS_P2;PMS_P1;PMS_P2;Temp;Humidity;BMP_temperature;BMP_pressure;BME280_temperature;BME280_humidity;BME280_pressure;Samples;Min_cycle;Max_cycle;Signal;HPM_P1;HPM_P2
2022/04/15 00:00:40;;;;;;;17.23;6.28;;;7.70;99.90;;;;;;5033426;28;20044;-82
2022/04/15 00:03:06;;;;;;;16.35;6.95;;;7.60;99.90;;;;;;5053374;28;20047;-82
2022/04/15 00:05:36;;;;;;;12.30;6.10;;;7.70;99.90;;;;;;5054357;28;20051;-83
2022/04/15 00:08:10;;;;;;;12.02;6.32;;;7.50;99.90;;;;;;5053017;28;20047;-83
2022/04/15 00:10:39;;;;;;;18.03;6.53;;;8.10;99.90;;;;;;5037415;28;20045;-78
2022/04/15 00:13:06;;;;;;;11.85;6.00;;;7.60;99.90;;;;;;5054269;28;20041;-82
2022/04/15 00:15:33;;;;;;;19.33;6.60;;;8.20;99.90;;;;;;5037173;28;20086;-79
2022/04/15 00:17:59;;;;;;;17.80;6.53;;;7.60;99.90;;;;;;5036897;28;20141;-82
2022/04/15 00:20:26;;;;;;;14.27;6.47;;;7.60;99.90;;;;;;5033974;28;20382;-80
2022/04/15 00:22:53;;;;;;;12.27;6.18;;;7.60;99.90;;;;;;5053522;28;20040;-84
2022/04/15 00:25:19;;;;;;;17.90;6.10;;;8.00;99.90;;;;;;5032687;28;20476;-82
2022/04/15 00:27:45;;;;;;;17.92;6.22;;;7.90;99.90;;;;;;5052553;28;20048;-80
2022/04/15 00:30:11;;;;;;;13.23;6.80;;;8.20;99.90;;;;;;5035486;28;20375;-81
2022/04/15 00:32:37;;;;;;;11.88;6.32;;;7.70;99.90;;;;;;5034594;28;20024;-83
2022/04/15 00:35:04;;;;;;;16.75;6.53;;;8.50;99.90;;;;;;5052077;28;20041;-79
2022/04/15 00:37:31;;;;;;;17.02;6.43;;;7.70;99.90;;;;;;5052826;28;20494;-81
2022/04/15 00:39:57;;;;;;;16.65;6.50;;;7.70;99.90;;;;;;5052287;28;20067;-80
2022/04/15 00:42:24;;;;;;;14.90;6.32;;;8.30;99.90;;;;;;5047283;28;20502;-82
2022/04/15 00:44:57;;;;;;;17.08;6.85;;;7.80;99.90;;;;;;5052495;28;20048;-82
2022/04/15 00:47:44;;;;;;;17.33;6.60;;;8.30;99.90;;;;;;5051107;28;20325;-82
2022/04/15 00:50:10;;;;;;;14.63;6.25;;;7.80;99.90;;;;;;5048546;28;20056;-82
2022/04/15 00:52:40;;;;;;;20.13;6.80;;;8.50;99.90;;;;;;5032854;28;20044;-80
2022/04/15 00:55:06;;;;;;;15.93;6.45;;;7.50;99.90;;;;;;5032727;28;20114;-81
2022/04/15 00:57:36;;;;;;;16.73;6.45;;;7.90;99.90;;;;;;5036369;28;20036;-80
2022/04/15 01:00:04;;;;;;;16.10;6.97;;;8.00;99.90;;;;;;5052514;28;20131;-80
2022/04/15 01:02:32;;;;;;;17.05;6.47;;;7.90;99.90;;;;;;5052962;28;20040;-81
2022/04/15 01:05:00;;;;;;;17.15;6.90;;;8.30;99.90;;;;;;5033422;28;20408;-81
2022/04/15 01:07:26;;;;;;;16.02;6.55;;;8.10;99.90;;;;;;5035065;28;20594;-81
2022/04/15 01:09:53;;;;;;;14.27;6.45;;;8.00;99.90;;;;;;5069322;28;20045;-81
2022/04/15 01:12:22;;;;;;;16.52;6.35;;;8.00;99.90;;;;;;5034547;28;20123;-81
2022/04/15 01:14:48;;;;;;;13.00;6.13;;;8.30;99.90;;;;;;5070818;28;20039;-81
2022/04/15 01:17:14;;;;;;;10.77;5.10;;;8.70;99.90;;;;;;5032176;28;20451;-80
2022/04/15 01:19:41;;;;;;;16.63;4.78;;;8.20;99.90;;;;;;5035295;28;20052;-80
2022/04/15 01:22:14;;;;;;;14.38;4.90;;;8.40;99.90;;;;;;5050261;28;20051;-82
2022/04/15 01:24:40;;;;;;;13.27;4.90;;;8.70;99.90;;;;;;5051934;28;20407;-80
2022/04/15 01:27:07;;;;;;;12.55;4.80;;;8.20;99.90;;;;;;5049035;28;20049;-82
2022/04/15 01:29:39;;;;;;;10.90;4.30;;;8.10;99.90;;;;;;5068649;28;20037;-81
2022/04/15 01:32:07;;;;;;;8.27;4.20;;;8.80;99.90;;;;;;5034379;28;20514;-81
2022/04/15 01:34:34;;;;;;;15.70;4.93;;;8.20;99.90;;;;;;5047439;28;20045;-83
2022/04/15 01:37:04;;;;;;;13.45;4.13;;;8.20;99.90;;;;;;5051487;28;20109;-79
2022/04/15 01:39:31;;;;;;;11.88;4.10;;;8.10;99.90;;;;;;5050649;28;20403;-79
2022/04/15 01:41:57;;;;;;;15.02;4.18;;;8.20;99.90;;;;;;5052054;28;20056;-83
2022/04/15 01:44:24;;;;;;;15.50;4.15;;;8.70;99.90;;;;;;5070013;28;20086;-83
2022/04/15 01:46:50;;;;;;;16.70;4.30;;;8.20;99.90;;;;;;5052605;28;20333;-83
2022/04/15 01:49:16;;;;;;;14.70;4.50;;;8.20;99.90;;;;;;5044176;28;20363;-83
2022/04/15 01:51:41;;;;;;;13.23;4.32;;;8.40;99.90;;;;;;5050145;28;20053;-81
2022/04/15 01:54:07;;;;;;;16.55;5.22;;;8.20;99.90;;;;;;5032130;28;20086;-81
2022/04/15 01:56:32;;;;;;;12.00;4.78;;;8.20;99.90;;;;;;5034959;28;20098;-81
2022/04/15 01:58:58;;;;;;;16.13;5.20;;;8.80;99.90;;;;;;5048440;28;20053;-80
2022/04/15 02:01:24;;;;;;;19.75;5.25;;;8.60;99.90;;;;;;5048630;28;20120;-83
2022/04/15 02:03:49;;;;;;;18.65;5.60;;;8.20;99.90;;;;;;5067329;28;20041;-82
2022/04/15 02:06:15;;;;;;;19.90;5.45;;;8.20;99.90;;;;;;5048952;28;20032;-84
2022/04/15 02:08:41;;;;;;;18.85;5.88;;;8.90;99.90;;;;;;5038596;28;20040;-79
2022/04/15 02:11:07;;;;;;;20.25;6.22;;;8.80;99.90;;;;;;5068077;28;20828;-84
2022/04/15 02:13:32;;;;;;;20.17;6.75;;;9.00;99.90;;;;;;5031773;28;20344;-83
2022/04/15 02:15:58;;;;;;;14.75;6.05;;;8.20;99.90;;;;;;5033815;28;21011;-79
2022/04/15 02:18:26;;;;;;;25.13;6.55;;;8.30;99.90;;;;;;5045517;28;20044;-80
2022/04/15 02:20:52;;;;;;;23.02;6.82;;;8.30;99.90;;;;;;5065983;28;20375;-82
2022/04/15 02:23:18;;;;;;;22.25;6.82;;;8.20;99.90;;;;;;5077948;28;20151;-78
2022/04/15 02:25:43;;;;;;;18.50;6.85;;;8.40;99.90;;;;;;5047601;28;20605;-79
2022/04/15 02:28:09;;;;;;;19.75;7.47;;;8.20;99.90;;;;;;5079289;28;20098;-82
2022/04/15 02:30:35;;;;;;;20.42;7.93;;;8.80;99.90;;;;;;5041777;28;20033;-78
2022/04/15 02:33:01;;;;;;;19.45;7.78;;;8.50;99.90;;;;;;5059171;28;20079;-79
2022/04/15 02:35:26;;;;;;;19.42;7.43;;;9.00;99.90;;;;;;5046899;28;20072;-80
2022/04/15 02:37:52;;;;;;;21.38;7.60;;;8.80;99.90;;;;;;5047788;28;20550;-82
2022/04/15 02:40:18;;;;;;;22.70;7.70;;;8.30;99.90;;;;;;5047930;28;20136;-81
2022/04/15 02:42:44;;;;;;;23.13;8.45;;;8.20;99.90;;;;;;5066622;28;20067;-81
2022/04/15 02:45:10;;;;;;;19.20;7.22;;;8.30;99.90;;;;;;5049113;28;20032;-81
2022/04/15 02:47:36;;;;;;;23.85;7.80;;;8.30;99.90;;;;;;5068880;28;20056;-83
2022/04/15 02:50:02;;;;;;;18.77;9.32;;;8.90;99.90;;;;;;5050198;28;20064;-80
2022/04/15 02:52:27;;;;;;;26.38;11.43;;;8.90;99.90;;;;;;5030942;28;20838;-82
2022/04/15 02:54:54;;;;;;;21.92;13.05;;;8.70;99.90;;;;;;5049472;28;20079;-80
2022/04/15 02:57:19;;;;;;;25.33;13.85;;;8.60;99.90;;;;;;5033200;28;20028;-81
2022/04/15 02:59:45;;;;;;;21.00;10.60;;;8.90;99.90;;;;;;5034474;28;20459;-81
2022/04/15 03:02:11;;;;;;;23.35;13.65;;;8.30;99.90;;;;;;5033498;28;20152;-79
2022/04/15 03:04:36;;;;;;;17.10;11.05;;;8.10;99.90;;;;;;5034146;28;20461;-79
2022/04/15 03:07:02;;;;;;;16.40;10.93;;;8.80;99.90;;;;;;5065232;28;20037;-81
2022/04/15 03:09:28;;;;;;;16.95;10.45;;;7.90;99.90;;;;;;5070026;28;20376;-80
2022/04/15 03:11:53;;;;;;;21.98;12.30;;;8.00;99.90;;;;;;5033292;28;20049;-81
2022/04/15 03:14:19;;;;;;;14.32;9.75;;;8.40;99.90;;;;;;5068883;28;20103;-80
2022/04/15 03:16:45;;;;;;;10.20;6.85;;;7.90;99.90;;;;;;5050785;28;20033;-82
2022/04/15 03:19:10;;;;;;;11.15;7.95;;;8.40;99.90;;;;;;5033029;28;20055;-79
2022/04/15 03:21:36;;;;;;;10.10;5.97;;;8.00;99.90;;;;;;5047014;28;20044;-82
2022/04/15 03:24:02;;;;;;;11.77;5.47;;;8.00;99.90;;;;;;5045641;28;20096;-81
2022/04/15 03:26:28;;;;;;;9.05;5.45;;;7.70;99.90;;;;;;5071179;28;20040;-83
2022/04/15 03:28:54;;;;;;;9.90;5.43;;;8.10;99.90;;;;;;5054068;28;20067;-80
2022/04/15 03:31:20;;;;;;;10.32;6.18;;;8.10;99.90;;;;;;5051888;28;20037;-81
2022/04/15 03:33:46;;;;;;;8.95;5.05;;;8.20;99.90;;;;;;5053981;28;20025;-80
2022/04/15 03:36:15;;;;;;;5.93;5.32;;;8.30;99.90;;;;;;5070946;28;20420;-80
2022/04/15 03:38:41;;;;;;;7.45;5.15;;;7.50;99.90;;;;;;5051330;28;20037;-79
2022/04/15 03:41:08;;;;;;;5.38;4.47;;;7.50;99.90;;;;;;5054594;28;20460;-81
2022/04/15 03:43:33;;;;;;;8.82;5.05;;;8.20;99.90;;;;;;5071417;28;20036;-80
2022/04/15 03:45:59;;;;;;;6.15;4.68;;;7.30;99.90;;;;;;5045079;28;20047;-82
2022/04/15 03:48:25;;;;;;;7.25;5.35;;;7.40;99.90;;;;;;5055600;28;20100;-80
2022/04/15 03:50:52;;;;;;;6.75;4.68;;;7.30;99.90;;;;;;5086872;28;20029;-81
2022/04/15 03:53:19;;;;;;;8.30;4.57;;;7.30;99.90;;;;;;5075859;28;20064;-81
2022/04/15 03:56:13;;;;;;;12.35;5.13;;;7.90;99.90;;;;;;5071435;28;20080;-80
2022/04/15 03:58:39;;;;;;;10.00;4.95;;;7.30;99.90;;;;;;5058291;28;20048;-81
2022/04/15 04:01:04;;;;;;;7.50;5.32;;;7.50;99.90;;;;;;5076228;28;20056;-81
2022/04/15 04:03:30;;;;;;;8.60;5.38;;;7.90;99.90;;;;;;5034977;28;20086;-81
2022/04/15 04:05:56;;;;;;;8.02;5.38;;;8.10;99.90;;;;;;5071259;28;20502;-80
2022/04/15 04:08:21;;;;;;;7.68;5.25;;;8.20;99.90;;;;;;5051091;28;20044;-82
2022/04/15 04:10:47;;;;;;;7.75;5.55;;;7.40;99.90;;;;;;5052322;28;20041;-82
2022/04/15 04:13:13;;;;;;;7.22;5.20;;;7.40;99.90;;;;;;5054327;28;20071;-82
2022/04/15 04:15:38;;;;;;;9.52;5.50;;;7.80;99.90;;;;;;5051189;28;20086;-82
2022/04/15 04:18:04;;;;;;;7.25;4.90;;;7.80;99.90;;;;;;5052434;28;20045;-84
2022/04/15 04:20:30;;;;;;;7.00;3.90;;;7.40;99.90;;;;;;5071477;28;20502;-79
2022/04/15 04:22:56;;;;;;;8.68;3.65;;;7.30;99.90;;;;;;5032416;28;20626;-80
2022/04/15 04:25:22;;;;;;;4.85;3.70;;;7.60;99.90;;;;;;5054822;28;20052;-85
2022/04/15 04:28:06;;;;;;;4.35;3.10;;;7.50;99.90;;;;;;5052594;28;20377;-81
2022/04/15 04:30:32;;;;;;;6.05;4.00;;;7.30;99.90;;;;;;5066260;28;20036;-84
2022/04/15 04:32:59;;;;;;;4.20;3.65;;;7.40;99.90;;;;;;5049663;28;20379;-83
2022/04/15 04:35:25;;;;;;;6.75;3.85;;;7.70;99.90;;;;;;5048627;28;20163;-82
2022/04/15 04:37:51;;;;;;;5.63;4.65;;;7.60;99.90;;;;;;5047943;28;20067;-83
2022/04/15 04:40:17;;;;;;;11.32;5.30;;;7.70;99.90;;;;;;5064861;28;20072;-83
2022/04/15 04:42:44;;;;;;;8.25;4.40;;;7.20;99.90;;;;;;5054198;28;20165;-84
2022/04/15 04:45:10;;;;;;;8.02;4.43;;;7.20;99.90;;;;;;5053725;28;20036;-82
2022/04/15 04:47:41;;;;;;;8.00;3.85;;;8.20;99.90;;;;;;5033453;28;20040;-80
2022/04/15 04:50:09;;;;;;;4.53;3.47;;;8.10;99.90;;;;;;5053098;28;20181;-82
2022/04/15 04:52:36;;;;;;;5.07;2.78;;;7.20;99.90;;;;;;5035491;28;20128;-83
2022/04/15 04:55:02;;;;;;;5.30;2.97;;;7.20;99.90;;;;;;5052231;28;20078;-80
2022/04/15 04:57:28;;;;;;;7.10;3.78;;;7.70;99.90;;;;;;5051236;28;20044;-81
2022/04/15 04:59:53;;;;;;;5.32;3.40;;;7.10;99.90;;;;;;5036408;28;20048;-80
2022/04/15 05:02:19;;;;;;;7.10;3.85;;;7.10;99.90;;;;;;5069849;28;20047;-80
2022/04/15 05:04:45;;;;;;;7.03;3.85;;;7.50;99.90;;;;;;5035938;28;20071;-80
2022/04/15 05:07:45;;;;;;;6.22;4.03;;;7.80;99.90;;;;;;5071394;28;20032;-84
2022/04/15 05:10:50;;;;;;;8.68;4.25;;;6.90;99.90;;;;;;4983684;28;20046;-83
2022/04/15 05:13:15;;;;;;;8.68;4.30;;;7.20;99.90;;;;;;4989150;28;20387;-83
2022/04/15 05:15:41;;;;;;;7.22;4.10;;;7.20;99.90;;;;;;4988528;28;20057;-79
2022/04/15 05:18:07;;;;;;;4.32;2.95;;;7.50;99.90;;;;;;4954400;28;20046;-82
2022/04/15 05:20:33;;;;;;;5.80;3.80;;;7.20;99.90;;;;;;4985376;28;20915;-81
2022/04/15 05:22:58;;;;;;;13.38;4.00;;;7.90;99.90;;;;;;4951995;28;20066;-82
2022/04/15 05:25:24;;;;;;;8.25;4.18;;;7.60;99.90;;;;;;4970648;28;20041;-82
2022/04/15 05:27:50;;;;;;;6.13;4.13;;;7.10;99.90;;;;;;4970329;28;20061;-82
2022/04/15 05:30:16;;;;;;;8.93;4.78;;;7.30;99.90;;;;;;4988908;28;20105;-82
2022/04/15 05:32:41;;;;;;;9.68;5.18;;;7.10;99.90;;;;;;4987319;28;20061;-82
2022/04/15 05:35:07;;;;;;;11.93;4.97;;;7.90;99.90;;;;;;4967304;28;20042;-82
2022/04/15 05:37:33;;;;;;;7.82;4.30;;;7.10;99.90;;;;;;4986049;28;20042;-82
2022/04/15 05:39:59;;;;;;;6.18;4.72;;;7.60;99.90;;;;;;4972541;28;20065;-83
2022/04/15 05:42:30;;;;;;;8.45;4.85;;;7.10;99.90;;;;;;4988584;28;20073;-81
2022/04/15 05:44:55;;;;;;;7.65;5.28;;;7.20;99.90;;;;;;4986877;28;20046;-84
2022/04/15 05:47:21;;;;;;;10.50;5.30;;;7.20;99.90;;;;;;5023738;28;20044;-80
2022/04/15 05:49:47;;;;;;;9.85;5.88;;;7.10;99.90;;;;;;5070023;28;20082;-82
2022/04/15 05:52:14;;;;;;;9.27;5.30;;;7.90;99.90;;;;;;5050292;28;20036;-81
2022/04/15 05:54:41;;;;;;;13.48;6.50;;;7.60;99.90;;;;;;5036092;28;20433;-83
2022/04/15 05:57:07;;;;;;;7.78;5.50;;;7.20;99.90;;;;;;5050005;28;20036;-84
2022/04/15 05:59:33;;;;;;;10.95;6.40;;;7.20;99.90;;;;;;5050998;28;20040;-83
2022/04/15 06:01:58;;;;;;;10.73;6.22;;;7.20;99.90;;;;;;5052949;28;20067;-83
2022/04/15 06:04:26;;;;;;;14.80;6.70;;;7.80;99.90;;;;;;5070540;28;20036;-83
2022/04/15 06:06:52;;;;;;;10.48;6.90;;;7.30;99.90;;;;;;5049989;28;20467;-84
2022/04/15 06:09:18;;;;;;;11.07;6.78;;;8.10;99.90;;;;;;5035984;28;20046;-86
2022/04/15 06:11:44;;;;;;;15.20;7.63;;;7.70;99.90;;;;;;5030227;28;20053;-83
2022/04/15 06:14:10;;;;;;;13.55;7.90;;;7.70;99.90;;;;;;5067560;28;20045;-86
2022/04/15 06:16:38;;;;;;;11.38;7.50;;;8.00;99.90;;;;;;5047620;28;20071;-82
2022/04/15 06:19:05;;;;;;;11.18;8.07;;;7.70;99.90;;;;;;5032072;28;20049;-85
2022/04/15 06:21:31;;;;;;;13.40;8.82;;;7.60;99.90;;;;;;5067971;28;20094;-82
2022/04/15 06:23:57;;;;;;;13.27;8.52;;;7.60;99.90;;;;;;5032931;28;20140;-85
2022/04/15 06:26:26;;;;;;;18.02;8.80;;;8.20;99.90;;;;;;5045514;28;20132;-79
2022/04/15 06:28:52;;;;;;;15.93;9.40;;;7.70;99.90;;;;;;5046226;28;20055;-80
2022/04/15 06:31:18;;;;;;;20.25;10.05;;;7.60;99.90;;;;;;5049716;28;20037;-82
2022/04/15 06:33:43;;;;;;;16.83;9.93;;;7.70;99.90;;;;;;5033538;28;20146;-85
2022/04/15 06:36:09;;;;;;;16.08;9.95;;;7.70;99.90;;;;;;5027145;28;20048;-82
2022/04/15 06:38:35;;;;;;;17.83;10.05;;;8.20;99.90;;;;;;5049844;28;20359;-83
2022/04/15 06:41:01;;;;;;;20.73;10.73;;;8.40;99.90;;;;;;5050039;28;20080;-84
2022/04/15 06:43:26;;;;;;;18.70;10.52;;;7.90;99.90;;;;;;5067085;28;20119;-80
2022/04/15 06:45:52;;;;;;;19.20;11.05;;;7.70;99.90;;;;;;5070245;28;20044;-82
2022/04/15 06:48:18;;;;;;;22.15;12.20;;;7.90;99.90;;;;;;5034262;28;20040;-81
2022/04/15 06:50:44;;;;;;;21.77;10.82;;;8.10;99.90;;;;;;5068467;28;20119;-82
2022/04/15 06:53:10;;;;;;;18.35;11.15;;;8.20;99.90;;;;;;5047709;28;20040;-81
2022/04/15 06:55:36;;;;;;;18.48;10.95;;;7.90;99.90;;;;;;5035725;28;20147;-81
2022/04/15 06:58:02;;;;;;;23.80;12.07;;;7.90;99.90;;;;;;5034471;28;20132;-81
2022/04/15 07:00:28;;;;;;;19.95;11.88;;;7.90;99.90;;;;;;5049561;28;20028;-82
2022/04/15 07:02:55;;;;;;;19.73;12.00;;;8.00;99.90;;;;;;5050645;28;20028;-78
2022/04/15 07:05:20;;;;;;;21.77;11.88;;;8.00;99.90;;;;;;5033838;28;20044;-79
2022/04/15 07:07:46;;;;;;;19.20;11.77;;;8.60;99.90;;;;;;5030054;28;20037;-80
2022/04/15 07:10:14;;;;;;;23.15;12.07;;;8.10;99.90;;;;;;5033887;28;20056;-81
2022/04/15 07:12:40;;;;;;;19.70;10.60;;;8.20;99.90;;;;;;5033695;28;20056;-78
2022/04/15 07:15:06;;;;;;;22.88;10.90;;;8.80;99.90;;;;;;5051150;28;20040;-79
2022/04/15 07:17:32;;;;;;;19.00;10.18;;;8.40;99.90;;;;;;5051279;28;20040;-79
2022/04/15 07:19:58;;;;;;;17.17;9.27;;;8.60;99.90;;;;;;5015168;28;20044;-78
2022/04/15 07:22:24;;;;;;;19.42;9.98;;;8.60;99.90;;;;;;5036059;28;20044;-81
2022/04/15 07:24:50;;;;;;;16.58;8.40;;;9.30;99.90;;;;;;5029461;28;20431;-80
2022/04/15 07:27:16;;;;;;;13.60;7.50;;;8.70;99.90;;;;;;5051133;28;20072;-82
2022/04/15 07:29:45;;;;;;;13.07;6.40;;;8.80;99.90;;;;;;5048915;28;20106;-80
2022/04/15 07:32:11;;;;;;;20.45;7.38;;;8.40;99.90;;;;;;5049283;28;20048;-82
2022/04/15 07:34:36;;;;;;;15.75;7.03;;;9.50;99.90;;;;;;5029293;28;20032;-81
2022/04/15 07:37:04;;;;;;;12.57;6.57;;;8.90;99.90;;;;;;5034484;28;20036;-82
2022/04/15 07:39:31;;;;;;;18.67;6.80;;;9.00;99.90;;;;;;5068827;28;20051;-83
2022/04/15 07:41:57;;;;;;;17.55;6.50;;;8.90;99.90;;;;;;5069016;28;20043;-81
2022/04/15 07:44:24;;;;;;;12.10;6.63;;;8.90;99.90;;;;;;5071011;28;20420;-80
2022/04/15 07:46:49;;;;;;;14.35;6.55;;;9.00;99.90;;;;;;5035597;28;20594;-80
2022/04/15 07:49:15;;;;;;;15.30;6.88;;;8.90;99.90;;;;;;5069807;28;20040;-83
2022/04/15 07:51:42;;;;;;;16.85;6.25;;;9.10;99.90;;;;;;5051620;28;20079;-79
2022/04/15 07:54:08;;;;;;;10.40;5.80;;;8.90;99.90;;;;;;5036366;28;20123;-80
2022/04/15 07:56:34;;;;;;;19.48;5.75;;;8.90;99.90;;;;;;5030366;28;20028;-79
2022/04/15 07:59:01;;;;;;;14.75;5.78;;;8.70;99.90;;;;;;5034025;28;20037;-82
2022/04/15 08:01:30;;;;;;;12.32;5.40;;;8.80;99.90;;;;;;5069074;28;20086;-84
2022/04/15 08:03:57;;;;;;;13.80;5.40;;;8.80;99.90;;;;;;5050867;28;20528;-81
2022/04/15 08:06:24;;;;;;;11.00;5.53;;;8.80;99.90;;;;;;5047569;28;20041;-84
2022/04/15 08:08:55;;;;;;;15.35;5.80;;;9.10;99.90;;;;;;5062494;28;20087;-84
2022/04/15 08:11:22;;;;;;;11.43;5.53;;;8.60;99.90;;;;;;5035343;28;20490;-82
2022/04/15 08:13:49;;;;;;;15.13;6.18;;;9.10;99.90;;;;;;5035041;28;20041;-79
2022/04/15 08:16:15;;;;;;;13.88;5.60;;;9.90;99.90;;;;;;5048188;28;20040;-82
2022/04/15 08:18:41;;;;;;;9.02;4.60;;;9.50;99.90;;;;;;5050571;28;20036;-82
2022/04/15 08:21:07;;;;;;;11.30;4.65;;;10.10;99.90;;;;;;5044726;28;20051;-82
2022/04/15 08:23:32;;;;;;;10.93;4.88;;;9.70;99.90;;;;;;5064891;28;20104;-83
2022/04/15 08:25:58;;;;;;;14.35;5.70;;;10.10;99.90;;;;;;5056825;28;20049;-82
2022/04/15 08:28:24;;;;;;;11.23;5.47;;;10.30;99.90;;;;;;5076489;28;20052;-83
2022/04/15 08:30:50;;;;;;;12.57;5.85;;;9.80;99.90;;;;;;5038764;28;20451;-82
2022/04/15 08:33:16;;;;;;;14.45;5.65;;;9.50;99.90;;;;;;5054825;28;20074;-82
2022/04/15 08:35:41;;;;;;;10.15;5.20;;;9.70;99.90;;;;;;5056093;28;20063;-83
2022/04/15 08:38:11;;;;;;;16.63;6.55;;;9.40;99.90;;;;;;5054224;28;20040;-83
2022/04/15 08:40:39;;;;;;;12.20;5.68;;;9.80;99.90;;;;;;5035798;28;20044;-81
2022/04/15 08:43:07;;;;;;;10.75;5.22;;;10.00;99.90;;;;;;5055859;28;20048;-84
2022/04/15 08:45:38;;;;;;;11.52;5.63;;;10.20;99.90;;;;;;5034878;28;20090;-82
2022/04/15 08:48:05;;;;;;;10.32;5.13;;;10.40;99.90;;;;;;5054180;28;20395;-82
2022/04/15 08:50:31;;;;;;;14.25;5.53;;;10.30;99.90;;;;;;5037711;28;20029;-80
2022/04/15 08:52:59;;;;;;;10.88;5.30;;;10.40;99.90;;;;;;5054431;28;20386;-84
2022/04/15 08:55:27;;;;;;;9.48;5.22;;;10.20;99.90;;;;;;5035707;28;20459;-82
2022/04/15 08:57:54;;;;;;;8.43;4.57;;;10.00;99.90;;;;;;5054707;28;20048;-82
2022/04/15 09:00:22;;;;;;;8.70;4.68;;;9.90;99.90;;;;;;5036318;28;20109;-80
2022/04/15 09:02:49;;;;;;;9.10;4.65;;;9.90;99.90;;;;;;5068146;28;20106;-84
2022/04/15 09:05:21;;;;;;;9.57;4.85;;;9.80;99.90;;;;;;5054793;28;20044;-82
2022/04/15 09:07:46;;;;;;;9.35;4.70;;;10.20;99.90;;;;;;5053663;28;20128;-82
2022/04/15 09:10:14;;;;;;;8.10;4.63;;;11.00;99.90;;;;;;5036798;28;20131;-81
2022/04/15 09:12:41;;;;;;;7.25;4.82;;;10.50;99.90;;;;;;5053564;28;20037;-83
2022/04/15 09:15:07;;;;;;;7.95;4.20;;;10.40;99.90;;;;;;5037451;28;20051;-82
2022/04/15 09:17:35;;;;;;;10.70;5.05;;;10.10;99.90;;;;;;5072847;28;20036;-84
2022/04/15 09:20:05;;;;;;;10.63;4.47;;;10.40;99.90;;;;;;5050746;28;20226;-83
2022/04/15 09:22:31;;;;;;;8.35;4.40;;;9.80;99.90;;;;;;5053195;28;20056;-82
2022/04/15 09:24:58;;;;;;;8.32;4.97;;;9.90;99.90;;;;;;5053035;28;20067;-79
2022/04/15 09:27:45;;;;;;;10.75;5.32;;;10.60;99.90;;;;;;5038091;28;20081;-80
2022/04/15 09:30:11;;;;;;;9.18;4.60;;;10.50;99.90;;;;;;5052710;28;20056;-83
2022/04/15 09:32:40;;;;;;;10.25;4.70;;;10.80;99.90;;;;;;5072623;28;20044;-82
2022/04/15 09:35:07;;;;;;;11.05;5.50;;;11.10;99.90;;;;;;5035414;28;20124;-82
2022/04/15 09:37:40;;;;;;;12.38;6.00;;;11.30;99.90;;;;;;5019316;28;20072;-81
2022/04/15 09:40:13;;;;;;;11.65;5.75;;;10.90;99.90;;;;;;5069681;28;20395;-81
2022/04/15 09:42:46;;;;;;;10.50;5.38;;;11.00;99.90;;;;;;5036415;28;20114;-81
2022/04/15 09:45:35;;;;;;;10.68;5.18;;;10.70;99.90;;;;;;5069470;28;20051;-81
2022/04/15 09:48:11;;;;;;;9.40;4.97;;;10.90;99.90;;;;;;4953433;28;20055;-81
2022/04/15 09:50:40;;;;;;;9.00;5.47;;;10.70;99.90;;;;;;4964531;28;20138;-83
2022/04/15 09:53:17;;;;;;;11.45;5.53;;;10.90;99.90;;;;;;4968664;28;20600;-82
2022/04/15 09:55:48;;;;;;;10.23;5.18;;;10.70;99.90;;;;;;4963257;28;20049;-84
2022/04/15 09:58:16;;;;;;;11.02;5.07;;;10.50;99.90;;;;;;4952683;28;20093;-80
2022/04/15 10:00:48;;;;;;;9.15;5.30;;;10.90;99.90;;;;;;4974118;28;20121;-87
2022/04/15 10:03:27;;;;;;;9.43;5.75;;;10.50;99.90;;;;;;4949110;28;20070;-82
2022/04/15 10:05:55;;;;;;;9.15;5.35;;;10.40;99.90;;;;;;4962246;28;20194;-78
2022/04/15 10:08:23;;;;;;;10.48;5.22;;;11.00;99.90;;;;;;4978928;28;20120;-83
2022/04/15 10:10:50;;;;;;;12.30;4.85;;;11.00;99.90;;;;;;4962211;28;20592;-81
2022/04/15 10:13:17;;;;;;;9.60;5.07;;;10.60;99.90;;;;;;4961914;28;20054;-80
2022/04/15 10:15:47;;;;;;;12.88;5.80;;;10.60;99.90;;;;;;4957554;28;20141;-79
2022/04/15 10:18:13;;;;;;;19.55;6.20;;;10.60;99.90;;;;;;4952191;28;20459;-79
2022/04/15 10:20:39;;;;;;;15.98;6.28;;;10.60;99.90;;;;;;4959297;28;20133;-80
2022/04/15 10:23:11;;;;;;;11.77;5.75;;;10.80;99.90;;;;;;4960026;28;20129;-77
2022/04/15 10:25:38;;;;;;;12.82;6.43;;;10.70;99.90;;;;;;5005380;28;20048;-77
2022/04/15 10:28:08;;;;;;;9.30;5.78;;;10.70;99.90;;;;;;5049348;28;20050;-76
2022/04/15 10:30:34;;;;;;;11.20;6.15;;;10.80;99.90;;;;;;5045977;28;20496;-77
2022/04/15 10:33:00;;;;;;;11.32;5.93;;;10.70;99.90;;;;;;5047844;28;20047;-79
2022/04/15 10:35:36;;;;;;;11.65;6.05;;;10.70;99.90;;;;;;5049630;28;20044;-82
2022/04/15 10:38:09;;;;;;;10.35;5.65;;;10.70;99.90;;;;;;5049497;28;21164;-83
2022/04/15 10:40:36;;;;;;;7.93;5.18;;;10.80;99.90;;;;;;5051276;28;20048;-83
2022/04/15 10:43:21;;;;;;;8.60;5.43;;;10.60;99.90;;;;;;5051269;28;20080;-83
2022/04/15 10:45:47;;;;;;;11.50;5.70;;;10.70;99.90;;;;;;5033165;28;20447;-85
2022/04/15 10:48:13;;;;;;;10.65;5.97;;;10.80;99.90;;;;;;5070580;28;20515;-82
2022/04/15 10:50:40;;;;;;;14.38;5.82;;;10.70;99.90;;;;;;5028241;28;21925;-84
2022/04/15 10:53:26;;;;;;;11.60;5.82;;;10.90;99.90;;;;;;5049836;28;20156;-85
2022/04/15 10:55:52;;;;;;;8.95;5.78;;;10.80;99.90;;;;;;5049799;28;20062;-82
2022/04/15 10:58:21;;;;;;;8.10;4.70;;;10.90;99.90;;;;;;5033570;28;20157;-83
2022/04/15 11:01:19;;;;;;;13.45;5.70;;;10.70;99.90;;;;;;5048987;28;20044;-82
2022/04/15 11:04:01;;;;;;;12.38;5.90;;;10.40;99.90;;;;;;5048723;28;20162;-83
2022/04/15 11:06:28;;;;;;;9.35;5.47;;;10.30;99.90;;;;;;5042910;28;20120;-82
2022/04/15 11:08:55;;;;;;;13.32;6.32;;;10.20;99.90;;;;;;5047362;28;20494;-86
2022/04/15 11:11:39;;;;;;;12.70;6.32;;;10.70;99.90;;;;;;5047279;28;20035;-87
2022/04/15 11:14:06;;;;;;;11.32;5.97;;;10.40;99.90;;;;;;5046185;28;20056;-84
2022/04/15 11:16:50;;;;;;;8.70;5.80;;;10.70;99.90;;;;;;5047501;28;20048;-84
2022/04/15 11:19:18;;;;;;;9.00;5.28;;;10.50;99.90;;;;;;5026578;28;20175;-83
2022/04/15 11:21:50;;;;;;;8.88;5.40;;;10.20;99.90;;;;;;5031527;28;20529;-84
2022/04/15 11:24:25;;;;;;;12.60;6.15;;;10.10;99.90;;;;;;5032505;28;20055;-85
2022/04/15 11:27:01;;;;;;;10.77;5.78;;;10.20;99.90;;;;;;5029457;28;20060;-85
2022/04/15 11:29:31;;;;;;;8.23;5.40;;;10.90;99.90;;;;;;5036354;28;20044;-86
2022/04/15 11:32:07;;;;;;;10.43;6.30;;;10.20;99.90;;;;;;5064324;28;20051;-86
2022/04/15 11:34:34;;;;;;;9.52;5.53;;;10.20;99.90;;;;;;5036462;28;20348;-84
2022/04/15 11:37:02;;;;;;;10.68;6.10;;;10.70;99.90;;;;;;5055476;28;20100;-85
2022/04/15 11:39:29;;;;;;;9.80;5.57;;;10.30;99.90;;;;;;5055209;28;20040;-83
2022/04/15 11:41:59;;;;;;;11.50;6.35;;;10.30;99.90;;;;;;5062275;28;20156;-83
2022/04/15 11:45:00;;;;;;;8.43;5.85;;;10.40;99.90;;;;;;5050742;28;20045;-88
2022/04/15 11:47:26;;;;;;;8.68;4.60;;;10.80;99.90;;;;;;4958533;28;20478;-87
2022/04/15 11:50:01;;;;;;;10.48;5.65;;;10.30;99.90;;;;;;4943693;28;20055;-87
2022/04/15 11:52:29;;;;;;;10.23;5.47;;;10.40;99.90;;;;;;4957526;28;20055;-87
2022/04/15 11:54:58;;;;;;;8.65;5.72;;;10.40;99.90;;;;;;4941661;28;20107;-87
2022/04/15 11:57:36;;;;;;;9.55;5.65;;;10.40;99.90;;;;;;4940711;28;20139;-88
2022/04/15 12:00:03;;;;;;;9.98;5.90;;;10.70;99.90;;;;;;4934596;28;20053;-83
2022/04/15 12:02:30;;;;;;;12.30;6.70;;;10.40;99.90;;;;;;4940830;28;20070;-86
2022/04/15 12:04:58;;;;;;;13.63;6.10;;;10.50;99.90;;;;;;4936987;28;20082;-86
2022/04/15 12:07:29;;;;;;;9.73;6.25;;;10.30;99.90;;;;;;4952073;28;20074;-86
2022/04/15 12:09:54;;;;;;;12.32;5.97;;;10.20;99.90;;;;;;4934511;28;20098;-88
2022/04/15 12:12:24;;;;;;;13.88;6.05;;;10.20;99.90;;;;;;4937438;28;20130;-84
2022/04/15 12:14:56;;;;;;;15.57;6.57;;;10.60;99.90;;;;;;4956125;28;20138;-82
2022/04/15 12:17:22;;;;;;;12.57;6.22;;;10.40;99.90;;;;;;4944742;28;20050;-85
2022/04/15 12:19:49;;;;;;;8.82;5.32;;;10.30;99.90;;;;;;4948918;28;20042;-84
2022/04/15 12:22:16;;;;;;;11.70;6.20;;;10.30;99.90;;;;;;4955188;28;20204;-85
2022/04/15 12:24:45;;;;;;;14.07;5.95;;;10.40;99.90;;;;;;5011441;28;20044;-84
2022/04/15 12:27:15;;;;;;;9.95;5.78;;;10.50;99.90;;;;;;5039777;28;20124;-83
2022/04/15 12:29:54;;;;;;;12.50;5.97;;;10.60;99.90;;;;;;5041086;28;20127;-84
2022/04/15 12:32:39;;;;;;;12.25;5.90;;;10.40;99.90;;;;;;5051461;28;20058;-83
2022/04/15 12:35:09;;;;;;;10.40;5.88;;;10.30;99.90;;;;;;5025599;28;20116;-86
2022/04/15 12:37:50;;;;;;;10.70;5.88;;;10.10;99.90;;;;;;5040904;28;20029;-82
2022/04/15 12:40:19;;;;;;;12.30;6.07;;;10.20;99.90;;;;;;5054548;28;20060;-81
2022/04/15 12:46:28;;;;;;;9.07;5.63;;;10.00;99.90;;;;;;5065527;28;20071;-85
2022/04/15 12:48:54;;;;;;;14.55;6.80;;;9.80;99.90;;;;;;5055291;28;20466;-84
2022/04/15 12:51:20;;;;;;;12.85;6.30;;;10.30;99.90;;;;;;5039147;28;20239;-84
2022/04/15 12:53:45;;;;;;;12.75;6.65;;;9.90;99.90;;;;;;5053415;28;20060;-84